sensor_id;sensor_type;location;lat;lon;timestamp;noise_LAeq;noise_LA_min;noise_LA_max;noise_LA01;noise_LA95
76382;Laerm;65202;52.520;10.528;2023-11-19T00:00:09;40.88;33.24;66.66;;
76382;Laerm;65202;52.520;10.528;2023-11-19T00:02:42;41.29;33.49;62.87;;
76382;Laerm;65202;52.520;10.528;2023-11-19T00:05:10;42.60;32.98;67.80;;
76382;Laerm;65202;52.520;10.528;2023-11-19T00:07:41;42.22;33.51;65.20;;
76382;Laerm;65202;52.520;10.528;2023-11-19T00:10:13;40.58;33.43;62.74;;
76382;Laerm;65202;52.520;10.528;2023-11-19T00:12:44;40.84;33.71;65.61;;
76382;Laerm;65202;52.520;10.528;2023-11-19T00:15:18;41.12;33.20;66.88;;
76382;Laerm;65202;52.520;10.528;2023-11-19T00:17:48;40.98;32.98;67.67;;
76382;Laerm;65202;52.520;10.528;2023-11-19T00:20:20;41.79;33.16;66.49;;
76382;Laerm;65202;52.520;10.528;2023-11-19T00:22:50;42.18;32.85;67.47;;
76382;Laerm;65202;52.520;10.528;2023-11-19T00:25:21;41.31;32.68;65.50;;
76382;Laerm;65202;52.520;10.528;2023-11-19T00:27:50;40.25;32.38;64.61;;
76382;Laerm;65202;52.520;10.528;2023-11-19T00:30:18;40.79;32.88;63.51;;
76382;Laerm;65202;52.520;10.528;2023-11-19T00:32:46;41.40;33.90;64.27;;
76382;Laerm;65202;52.520;10.528;2023-11-19T00:35:13;40.55;32.70;67.16;;
76382;Laerm;65202;52.520;10.528;2023-11-19T00:37:43;39.81;33.36;65.45;;
76382;Laerm;65202;52.520;10.528;2023-11-19T00:40:13;39.36;33.08;66.64;;
76382;Laerm;65202;52.520;10.528;2023-11-19T00:42:41;39.19;32.91;65.67;;
76382;Laerm;65202;52.520;10.528;2023-11-19T00:45:08;42.14;33.72;65.92;;
76382;Laerm;65202;52.520;10.528;2023-11-19T00:47:37;43.20;34.09;66.43;;
76382;Laerm;65202;52.520;10.528;2023-11-19T00:50:06;43.35;35.21;67.05;;
76382;Laerm;65202;52.520;10.528;2023-11-19T00:52:33;43.48;34.82;68.71;;
76382;Laerm;65202;52.520;10.528;2023-11-19T00:55:00;44.84;34.14;66.96;;
76382;Laerm;65202;52.520;10.528;2023-11-19T00:57:28;42.68;34.70;66.31;;
76382;Laerm;65202;52.520;10.528;2023-11-19T00:59:55;43.16;34.22;66.80;;
76382;Laerm;65202;52.520;10.528;2023-11-19T01:02:22;41.21;33.95;66.36;;
76382;Laerm;65202;52.520;10.528;2023-11-19T01:04:49;42.32;33.28;67.47;;
76382;Laerm;65202;52.520;10.528;2023-11-19T01:07:17;41.66;33.91;68.35;;
76382;Laerm;65202;52.520;10.528;2023-11-19T01:09:44;41.65;33.30;69.54;;
76382;Laerm;65202;52.520;10.528;2023-11-19T01:12:11;41.00;32.54;67.12;;
76382;Laerm;65202;52.520;10.528;2023-11-19T01:14:39;39.94;32.56;64.93;;
76382;Laerm;65202;52.520;10.528;2023-11-19T01:17:06;43.30;32.40;66.32;;
76382;Laerm;65202;52.520;10.528;2023-11-19T01:19:34;39.46;32.50;67.66;;
76382;Laerm;65202;52.520;10.528;2023-11-19T01:22:01;39.01;32.92;67.90;;
76382;Laerm;65202;52.520;10.528;2023-11-19T01:24:28;39.82;32.17;67.42;;
76382;Laerm;65202;52.520;10.528;2023-11-19T01:26:58;38.46;32.31;64.84;;
76382;Laerm;65202;52.520;10.528;2023-11-19T01:29:27;38.65;31.88;66.09;;
76382;Laerm;65202;52.520;10.528;2023-11-19T01:31:54;39.91;32.12;67.99;;
76382;Laerm;65202;52.520;10.528;2023-11-19T01:34:21;38.15;32.32;60.12;;
76382;Laerm;65202;52.520;10.528;2023-11-19T01:36:49;38.08;32.18;61.42;;
76382;Laerm;65202;52.520;10.528;2023-11-19T01:39:16;39.66;32.06;67.16;;
76382;Laerm;65202;52.520;10.528;2023-11-19T01:41:44;41.02;32.38;66.82;;
76382;Laerm;65202;52.520;10.528;2023-11-19T01:44:11;40.93;32.79;67.68;;
76382;Laerm;65202;52.520;10.528;2023-11-19T01:46:44;42.77;33.05;69.05;;
76382;Laerm;65202;52.520;10.528;2023-11-19T01:49:15;42.91;33.35;67.54;;
76382;Laerm;65202;52.520;10.528;2023-11-19T01:51:47;38.79;32.39;61.37;;
76382;Laerm;65202;52.520;10.528;2023-11-19T01:54:15;41.25;32.91;66.32;;
76382;Laerm;65202;52.520;10.528;2023-11-19T01:56:43;42.10;32.54;68.05;;
76382;Laerm;65202;52.520;10.528;2023-11-19T01:59:12;43.88;32.98;68.02;;
76382;Laerm;65202;52.520;10.528;2023-11-19T02:01:41;42.81;33.82;66.66;;
76382;Laerm;65202;52.520;10.528;2023-11-19T02:04:10;43.31;33.14;66.25;;
76382;Laerm;65202;52.520;10.528;2023-11-19T02:06:40;42.91;33.42;68.04;;
76382;Laerm;65202;52.520;10.528;2023-11-19T02:09:08;40.69;32.54;65.59;;
76382;Laerm;65202;52.520;10.528;2023-11-19T02:11:39;39.73;31.80;64.74;;
76382;Laerm;65202;52.520;10.528;2023-11-19T02:14:07;39.81;31.24;66.54;;
76382;Laerm;65202;52.520;10.528;2023-11-19T02:16:34;39.92;32.14;64.04;;
76382;Laerm;65202;52.520;10.528;2023-11-19T02:19:02;40.09;32.13;64.79;;
76382;Laerm;65202;52.520;10.528;2023-11-19T02:21:30;41.17;31.57;64.81;;
76382;Laerm;65202;52.520;10.528;2023-11-19T02:23:58;41.38;32.40;66.43;;
76382;Laerm;65202;52.520;10.528;2023-11-19T02:27:02;40.60;32.94;65.40;;
76382;Laerm;65202;52.520;10.528;2023-11-19T02:29:29;42.39;33.39;66.33;;
76382;Laerm;65202;52.520;10.528;2023-11-19T02:31:56;39.65;31.97;64.90;;
76382;Laerm;65202;52.520;10.528;2023-11-19T02:34:24;40.16;32.60;65.96;;
76382;Laerm;65202;52.520;10.528;2023-11-19T02:36:51;43.37;32.87;68.07;;
76382;Laerm;65202;52.520;10.528;2023-11-19T02:39:20;46.40;36.12;67.16;;
76382;Laerm;65202;52.520;10.528;2023-11-19T02:41:48;52.85;43.47;67.75;;
76382;Laerm;65202;52.520;10.528;2023-11-19T02:44:20;55.92;47.97;68.27;;
76382;Laerm;65202;52.520;10.528;2023-11-19T02:46:47;57.46;48.72;69.34;;
76382;Laerm;65202;52.520;10.528;2023-11-19T02:49:15;52.67;41.20;70.71;;
76382;Laerm;65202;52.520;10.528;2023-11-19T02:51:42;49.09;38.87;68.38;;
76382;Laerm;65202;52.520;10.528;2023-11-19T02:54:10;46.85;36.11;66.82;;
76382;Laerm;65202;52.520;10.528;2023-11-19T02:56:37;46.80;36.05;66.87;;
76382;Laerm;65202;52.520;10.528;2023-11-19T02:59:06;46.39;35.89;64.53;;
76382;Laerm;65202;52.520;10.528;2023-11-19T03:01:36;46.10;35.29;70.30;;
76382;Laerm;65202;52.520;10.528;2023-11-19T03:04:03;46.03;37.15;67.46;;
76382;Laerm;65202;52.520;10.528;2023-11-19T03:06:31;45.00;35.10;68.19;;
76382;Laerm;65202;52.520;10.528;2023-11-19T03:08:59;51.51;35.45;69.59;;
76382;Laerm;65202;52.520;10.528;2023-11-19T03:11:32;53.01;41.81;69.19;;
76382;Laerm;65202;52.520;10.528;2023-11-19T03:14:00;51.87;39.18;68.88;;
76382;Laerm;65202;52.520;10.528;2023-11-19T03:16:27;47.73;37.09;67.28;;
76382;Laerm;65202;52.520;10.528;2023-11-19T03:18:54;44.39;34.62;68.08;;
76382;Laerm;65202;52.520;10.528;2023-11-19T03:21:29;41.89;33.53;67.03;;
76382;Laerm;65202;52.520;10.528;2023-11-19T03:23:57;42.29;32.90;67.55;;
76382;Laerm;65202;52.520;10.528;2023-11-19T03:26:27;38.88;32.40;62.45;;
76382;Laerm;65202;52.520;10.528;2023-11-19T03:28:54;40.04;32.12;64.42;;
76382;Laerm;65202;52.520;10.528;2023-11-19T03:31:24;38.75;31.94;62.81;;
76382;Laerm;65202;52.520;10.528;2023-11-19T03:33:52;39.26;32.00;64.81;;
76382;Laerm;65202;52.520;10.528;2023-11-19T03:36:22;38.99;32.17;65.64;;
76382;Laerm;65202;52.520;10.528;2023-11-19T03:38:49;38.35;31.77;63.27;;
76382;Laerm;65202;52.520;10.528;2023-11-19T03:41:16;39.73;32.46;64.18;;
76382;Laerm;65202;52.520;10.528;2023-11-19T03:43:44;40.06;32.32;65.95;;
76382;Laerm;65202;52.520;10.528;2023-11-19T03:46:20;37.66;31.48;62.77;;
76382;Laerm;65202;52.520;10.528;2023-11-19T03:48:49;40.33;31.68;58.13;;
76382;Laerm;65202;52.520;10.528;2023-11-19T03:51:17;39.16;31.57;61.39;;
76382;Laerm;65202;52.520;10.528;2023-11-19T03:53:45;36.13;31.24;57.83;;
76382;Laerm;65202;52.520;10.528;2023-11-19T03:56:13;36.52;31.46;59.45;;
76382;Laerm;65202;52.520;10.528;2023-11-19T03:58:40;35.66;31.54;51.71;;
76382;Laerm;65202;52.520;10.528;2023-11-19T04:01:13;36.81;31.88;59.93;;
76382;Laerm;65202;52.520;10.528;2023-11-19T04:03:41;37.52;31.77;64.00;;
76382;Laerm;65202;52.520;10.528;2023-11-19T04:06:11;35.85;31.57;57.99;;
76382;Laerm;65202;52.520;10.528;2023-11-19T04:08:38;37.69;31.96;63.70;;
76382;Laerm;65202;52.520;10.528;2023-11-19T04:11:05;36.07;31.51;56.10;;
76382;Laerm;65202;52.520;10.528;2023-11-19T04:13:33;37.42;31.74;60.89;;
76382;Laerm;65202;52.520;10.528;2023-11-19T04:16:00;35.42;31.43;56.35;;
76382;Laerm;65202;52.520;10.528;2023-11-19T04:18:28;39.43;31.94;67.18;;
76382;Laerm;65202;52.520;10.528;2023-11-19T04:20:55;35.80;31.93;55.94;;
76382;Laerm;65202;52.520;10.528;2023-11-19T04:23:24;36.02;32.05;50.68;;
76382;Laerm;65202;52.520;10.528;2023-11-19T04:25:51;37.09;31.82;63.90;;
76382;Laerm;65202;52.520;10.528;2023-11-19T04:28:19;37.37;31.53;64.04;;
76382;Laerm;65202;52.520;10.528;2023-11-19T04:30:46;37.84;32.26;54.32;;
76382;Laerm;65202;52.520;10.528;2023-11-19T04:33:13;38.80;32.33;65.81;;
76382;Laerm;65202;52.520;10.528;2023-11-19T04:35:41;38.97;32.87;66.81;;
76382;Laerm;65202;52.520;10.528;2023-11-19T04:38:09;37.32;32.10;59.31;;
76382;Laerm;65202;52.520;10.528;2023-11-19T04:40:36;36.92;32.31;61.18;;
76382;Laerm;65202;52.520;10.528;2023-11-19T04:43:03;36.88;32.66;54.37;;
76382;Laerm;65202;52.520;10.528;2023-11-19T04:45:31;38.94;32.47;67.85;;
76382;Laerm;65202;52.520;10.528;2023-11-19T04:47:59;37.39;31.87;60.05;;
76382;Laerm;65202;52.520;10.528;2023-11-19T04:50:26;36.30;32.35;55.63;;
76382;Laerm;65202;52.520;10.528;2023-11-19T04:52:54;40.07;32.05;65.84;;
76382;Laerm;65202;52.520;10.528;2023-11-19T04:55:26;46.26;33.97;66.47;;
76382;Laerm;65202;52.520;10.528;2023-11-19T04:57:54;43.75;32.72;66.82;;
76382;Laerm;65202;52.520;10.528;2023-11-19T05:00:22;40.44;32.73;65.74;;
76382;Laerm;65202;52.520;10.528;2023-11-19T05:02:50;39.89;32.74;65.23;;
76382;Laerm;65202;52.520;10.528;2023-11-19T05:05:17;39.70;33.83;60.81;;
76382;Laerm;65202;52.520;10.528;2023-11-19T05:07:45;41.14;32.35;63.89;;
76382;Laerm;65202;52.520;10.528;2023-11-19T05:10:13;40.51;32.64;62.02;;
76382;Laerm;65202;52.520;10.528;2023-11-19T05:12:40;41.33;32.71;69.76;;
76382;Laerm;65202;52.520;10.528;2023-11-19T05:15:08;40.05;32.75;61.81;;
76382;Laerm;65202;52.520;10.528;2023-11-19T05:17:36;39.63;32.20;64.62;;
76382;Laerm;65202;52.520;10.528;2023-11-19T05:20:05;39.90;34.56;55.24;;
76382;Laerm;65202;52.520;10.528;2023-11-19T05:22:41;39.53;33.93;64.54;;
76382;Laerm;65202;52.520;10.528;2023-11-19T05:25:09;39.41;33.41;63.53;;
76382;Laerm;65202;52.520;10.528;2023-11-19T05:27:38;38.65;32.47;62.59;;
76382;Laerm;65202;52.520;10.528;2023-11-19T05:30:06;40.15;33.06;61.75;;
76382;Laerm;65202;52.520;10.528;2023-11-19T05:32:38;39.99;34.35;64.49;;
76382;Laerm;65202;52.520;10.528;2023-11-19T05:35:07;37.34;33.01;56.80;;
76382;Laerm;65202;52.520;10.528;2023-11-19T05:37:35;42.38;32.09;67.82;;
76382;Laerm;65202;52.520;10.528;2023-11-19T05:40:03;46.17;32.34;64.65;;
76382;Laerm;65202;52.520;10.528;2023-11-19T05:42:33;37.44;31.79;62.23;;
76382;Laerm;65202;52.520;10.528;2023-11-19T05:45:01;36.28;31.67;57.92;;
76382;Laerm;65202;52.520;10.528;2023-11-19T05:47:28;36.49;31.33;61.04;;
76382;Laerm;65202;52.520;10.528;2023-11-19T05:49:55;35.38;31.44;52.76;;
76382;Laerm;65202;52.520;10.528;2023-11-19T05:52:22;37.87;31.38;65.89;;
76382;Laerm;65202;52.520;10.528;2023-11-19T05:54:50;36.94;32.09;59.86;;
76382;Laerm;65202;52.520;10.528;2023-11-19T05:57:19;37.10;32.28;62.08;;
76382;Laerm;65202;52.520;10.528;2023-11-19T05:59:52;36.72;32.26;56.03;;
76382;Laerm;65202;52.520;10.528;2023-11-19T06:02:20;37.00;31.74;60.89;;
76382;Laerm;65202;52.520;10.528;2023-11-19T06:04:48;38.19;32.18;59.61;;
76382;Laerm;65202;52.520;10.528;2023-11-19T06:07:16;36.43;31.92;58.30;;
76382;Laerm;65202;52.520;10.528;2023-11-19T06:09:44;43.50;32.81;58.59;;
76382;Laerm;65202;52.520;10.528;2023-11-19T06:12:11;37.87;32.94;63.91;;
76382;Laerm;65202;52.520;10.528;2023-11-19T06:14:40;38.34;33.38;58.83;;
76382;Laerm;65202;52.520;10.528;2023-11-19T06:17:07;35.88;31.87;49.37;;
76382;Laerm;65202;52.520;10.528;2023-11-19T06:19:35;36.30;31.62;64.00;;
76382;Laerm;65202;52.520;10.528;2023-11-19T06:22:03;37.71;31.94;63.60;;
76382;Laerm;65202;52.520;10.528;2023-11-19T06:24:30;37.06;32.49;51.90;;
76382;Laerm;65202;52.520;10.528;2023-11-19T06:26:57;36.73;32.50;56.42;;
76382;Laerm;65202;52.520;10.528;2023-11-19T06:29:25;37.48;32.62;51.23;;
76382;Laerm;65202;52.520;10.528;2023-11-19T06:31:52;43.71;32.71;62.99;;
76382;Laerm;65202;52.520;10.528;2023-11-19T06:34:19;36.34;32.47;57.08;;
76382;Laerm;65202;52.520;10.528;2023-11-19T06:36:47;41.54;31.91;57.69;;
76382;Laerm;65202;52.520;10.528;2023-11-19T06:39:15;40.31;32.92;65.29;;
76382;Laerm;65202;52.520;10.528;2023-11-19T06:41:46;40.76;32.93;61.73;;
76382;Laerm;65202;52.520;10.528;2023-11-19T06:44:13;41.04;32.99;61.23;;
76382;Laerm;65202;52.520;10.528;2023-11-19T06:46:40;39.66;33.33;59.22;;
76382;Laerm;65202;52.520;10.528;2023-11-19T06:49:08;37.62;32.84;60.68;;
76382;Laerm;65202;52.520;10.528;2023-11-19T06:51:35;41.14;32.84;62.39;;
76382;Laerm;65202;52.520;10.528;2023-11-19T06:54:02;38.76;32.87;62.85;;
76382;Laerm;65202;52.520;10.528;2023-11-19T06:56:30;39.57;32.83;62.65;;
76382;Laerm;65202;52.520;10.528;2023-11-19T06:58:57;39.32;32.69;59.50;;
76382;Laerm;65202;52.520;10.528;2023-11-19T07:01:24;40.84;33.01;61.56;;
76382;Laerm;65202;52.520;10.528;2023-11-19T07:03:51;38.66;32.86;52.36;;
76382;Laerm;65202;52.520;10.528;2023-11-19T07:06:19;38.87;32.88;59.84;;
76382;Laerm;65202;52.520;10.528;2023-11-19T07:08:46;44.66;33.81;56.62;;
76382;Laerm;65202;52.520;10.528;2023-11-19T07:11:13;37.53;32.62;58.53;;
76382;Laerm;65202;52.520;10.528;2023-11-19T07:13:43;40.19;32.82;67.36;;
76382;Laerm;65202;52.520;10.528;2023-11-19T07:16:10;47.61;33.18;66.51;;
76382;Laerm;65202;52.520;10.528;2023-11-19T07:18:37;39.90;32.75;58.85;;
76382;Laerm;65202;52.520;10.528;2023-11-19T07:21:05;37.21;33.31;48.57;;
76382;Laerm;65202;52.520;10.528;2023-11-19T07:23:32;37.15;32.89;59.53;;
76382;Laerm;65202;52.520;10.528;2023-11-19T07:26:04;43.06;33.50;57.92;;
76382;Laerm;65202;52.520;10.528;2023-11-19T07:28:32;47.92;32.83;66.20;;
76382;Laerm;65202;52.520;10.528;2023-11-19T07:30:59;38.45;32.62;56.50;;
76382;Laerm;65202;52.520;10.528;2023-11-19T07:33:26;44.18;32.90;68.65;;
76382;Laerm;65202;52.520;10.528;2023-11-19T07:35:55;38.84;32.69;52.88;;
76382;Laerm;65202;52.520;10.528;2023-11-19T07:38:22;42.46;32.94;61.36;;
76382;Laerm;65202;52.520;10.528;2023-11-19T07:40:49;37.19;32.02;45.92;;
76382;Laerm;65202;52.520;10.528;2023-11-19T07:43:19;37.35;32.08;47.42;;
76382;Laerm;65202;52.520;10.528;2023-11-19T07:45:46;41.41;32.41;53.36;;
76382;Laerm;65202;52.520;10.528;2023-11-19T07:48:13;37.34;32.33;52.21;;
76382;Laerm;65202;52.520;10.528;2023-11-19T07:50:42;41.73;32.77;56.48;;
76382;Laerm;65202;52.520;10.528;2023-11-19T07:53:09;41.54;32.81;62.51;;
76382;Laerm;65202;52.520;10.528;2023-11-19T07:55:37;42.46;33.07;62.62;;
76382;Laerm;65202;52.520;10.528;2023-11-19T07:58:10;39.65;33.06;59.71;;
76382;Laerm;65202;52.520;10.528;2023-11-19T08:00:37;42.41;33.49;57.58;;
76382;Laerm;65202;52.520;10.528;2023-11-19T08:03:04;38.20;32.55;55.67;;
76382;Laerm;65202;52.520;10.528;2023-11-19T08:05:32;39.15;33.09;49.39;;
76382;Laerm;65202;52.520;10.528;2023-11-19T08:07:59;39.39;35.18;50.54;;
76382;Laerm;65202;52.520;10.528;2023-11-19T08:10:27;38.35;34.53;48.92;;
76382;Laerm;65202;52.520;10.528;2023-11-19T08:12:54;39.66;35.21;52.63;;
76382;Laerm;65202;52.520;10.528;2023-11-19T08:15:21;39.06;35.18;52.12;;
76382;Laerm;65202;52.520;10.528;2023-11-19T08:17:51;38.76;34.91;50.42;;
76382;Laerm;65202;52.520;10.528;2023-11-19T08:20:18;39.29;35.11;61.42;;
76382;Laerm;65202;52.520;10.528;2023-11-19T08:22:46;44.46;35.72;62.02;;
76382;Laerm;65202;52.520;10.528;2023-11-19T08:25:13;39.20;34.46;60.24;;
76382;Laerm;65202;52.520;10.528;2023-11-19T08:27:40;41.00;36.39;53.92;;
76382;Laerm;65202;52.520;10.528;2023-11-19T08:30:08;42.86;36.98;55.55;;
76382;Laerm;65202;52.520;10.528;2023-11-19T08:32:36;47.81;36.66;70.93;;
76382;Laerm;65202;52.520;10.528;2023-11-19T08:35:04;45.07;39.26;61.80;;
76382;Laerm;65202;52.520;10.528;2023-11-19T08:37:33;41.23;35.98;51.48;;
76382;Laerm;65202;52.520;10.528;2023-11-19T08:40:00;43.81;38.02;64.68;;
76382;Laerm;65202;52.520;10.528;2023-11-19T08:42:28;47.13;40.24;60.84;;
76382;Laerm;65202;52.520;10.528;2023-11-19T08:44:55;42.81;38.36;62.74;;
76382;Laerm;65202;52.520;10.528;2023-11-19T08:47:22;44.14;38.35;57.72;;
76382;Laerm;65202;52.520;10.528;2023-11-19T08:49:51;42.02;37.95;56.43;;
76382;Laerm;65202;52.520;10.528;2023-11-19T08:52:24;46.20;38.03;62.80;;
76382;Laerm;65202;52.520;10.528;2023-11-19T08:54:52;43.13;37.06;63.06;;
76382;Laerm;65202;52.520;10.528;2023-11-19T08:57:19;42.24;37.79;63.99;;
76382;Laerm;65202;52.520;10.528;2023-11-19T08:59:46;45.35;38.04;57.96;;
76382;Laerm;65202;52.520;10.528;2023-11-19T09:02:14;44.28;37.76;63.07;;
76382;Laerm;65202;52.520;10.528;2023-11-19T09:04:41;45.84;36.59;73.87;;
76382;Laerm;65202;52.520;10.528;2023-11-19T09:07:08;46.67;37.35;66.32;;
76382;Laerm;65202;52.520;10.528;2023-11-19T09:09:39;47.71;37.99;68.54;;
76382;Laerm;65202;52.520;10.528;2023-11-19T09:12:07;53.88;44.08;73.40;;
76382;Laerm;65202;52.520;10.528;2023-11-19T09:14:34;48.86;42.74;65.86;;
76382;Laerm;65202;52.520;10.528;2023-11-19T09:17:01;51.76;43.00;65.22;;
76382;Laerm;65202;52.520;10.528;2023-11-19T09:19:32;49.38;42.12;59.77;;
76382;Laerm;65202;52.520;10.528;2023-11-19T09:22:00;48.07;42.40;56.25;;
76382;Laerm;65202;52.520;10.528;2023-11-19T09:24:27;48.80;43.39;54.18;;
76382;Laerm;65202;52.520;10.528;2023-11-19T09:26:55;51.26;42.98;59.57;;
76382;Laerm;65202;52.520;10.528;2023-11-19T09:29:23;48.32;42.94;57.28;;
76382;Laerm;65202;52.520;10.528;2023-11-19T09:31:50;50.47;45.24;55.97;;
76382;Laerm;65202;52.520;10.528;2023-11-19T09:34:18;50.03;43.08;56.39;;
76382;Laerm;65202;52.520;10.528;2023-11-19T09:36:45;46.55;41.66;54.06;;
76382;Laerm;65202;52.520;10.528;2023-11-19T09:39:13;50.04;40.87;66.00;;
76382;Laerm;65202;52.520;10.528;2023-11-19T09:41:45;52.84;47.02;57.51;;
76382;Laerm;65202;52.520;10.528;2023-11-19T09:44:12;51.05;45.34;65.99;;
76382;Laerm;65202;52.520;10.528;2023-11-19T09:46:42;51.04;46.68;57.78;;
76382;Laerm;65202;52.520;10.528;2023-11-19T09:49:11;48.85;43.16;53.29;;
76382;Laerm;65202;52.520;10.528;2023-11-19T09:51:40;54.19;42.71;63.29;;
76382;Laerm;65202;52.520;10.528;2023-11-19T09:54:07;53.42;44.76;67.00;;
76382;Laerm;65202;52.520;10.528;2023-11-19T09:56:37;52.66;44.21;62.27;;
76382;Laerm;65202;52.520;10.528;2023-11-19T09:59:05;52.64;47.16;68.08;;
76382;Laerm;65202;52.520;10.528;2023-11-19T10:01:33;50.87;43.52;57.35;;
76382;Laerm;65202;52.520;10.528;2023-11-19T10:04:01;51.87;42.71;68.10;;
76382;Laerm;65202;52.520;10.528;2023-11-19T10:06:29;47.52;42.44;60.90;;
76382;Laerm;65202;52.520;10.528;2023-11-19T10:08:56;51.60;42.62;67.03;;
76382;Laerm;65202;52.520;10.528;2023-11-19T10:11:24;48.10;40.70;58.74;;
76382;Laerm;65202;52.520;10.528;2023-11-19T10:13:53;47.29;40.58;54.02;;
76382;Laerm;65202;52.520;10.528;2023-11-19T10:16:28;49.76;41.69;63.71;;
76382;Laerm;65202;52.520;10.528;2023-11-19T10:18:56;50.17;41.51;62.30;;
76382;Laerm;65202;52.520;10.528;2023-11-19T10:21:24;50.99;41.98;62.47;;
76382;Laerm;65202;52.520;10.528;2023-11-19T10:23:57;50.10;43.71;62.26;;
76382;Laerm;65202;52.520;10.528;2023-11-19T10:26:27;51.36;42.70;63.70;;
76382;Laerm;65202;52.520;10.528;2023-11-19T10:28:56;51.14;44.67;62.91;;
76382;Laerm;65202;52.520;10.528;2023-11-19T10:31:23;50.04;43.61;64.57;;
76382;Laerm;65202;52.520;10.528;2023-11-19T10:33:54;47.72;39.90;60.59;;
76382;Laerm;65202;52.520;10.528;2023-11-19T10:36:22;47.42;40.19;57.08;;
76382;Laerm;65202;52.520;10.528;2023-11-19T10:38:55;46.60;39.00;55.11;;
76382;Laerm;65202;52.520;10.528;2023-11-19T10:41:31;50.65;41.26;71.91;;
76382;Laerm;65202;52.520;10.528;2023-11-19T10:43:59;47.37;40.97;69.38;;
76382;Laerm;65202;52.520;10.528;2023-11-19T10:46:41;47.75;41.87;55.27;;
76382;Laerm;65202;52.520;10.528;2023-11-19T10:49:09;49.45;41.31;59.83;;
76382;Laerm;65202;52.520;10.528;2023-11-19T10:51:45;49.98;43.77;59.00;;
76382;Laerm;65202;52.520;10.528;2023-11-19T10:54:18;48.89;42.34;60.24;;
76382;Laerm;65202;52.520;10.528;2023-11-19T10:56:55;46.61;39.87;54.50;;
76382;Laerm;65202;52.520;10.528;2023-11-19T10:59:30;46.28;39.73;56.46;;
76382;Laerm;65202;52.520;10.528;2023-11-19T11:02:03;50.39;42.38;62.18;;
76382;Laerm;65202;52.520;10.528;2023-11-19T11:04:40;49.97;42.99;56.36;;
76382;Laerm;65202;52.520;10.528;2023-11-19T11:07:09;49.21;44.42;54.26;;
76382;Laerm;65202;52.520;10.528;2023-11-19T11:09:37;47.68;42.72;55.13;;
76382;Laerm;65202;52.520;10.528;2023-11-19T11:12:06;46.25;40.73;55.17;;
76382;Laerm;65202;52.520;10.528;2023-11-19T11:14:34;47.66;39.22;61.41;;
76382;Laerm;65202;52.520;10.528;2023-11-19T11:17:04;44.14;38.49;53.04;;
76382;Laerm;65202;52.520;10.528;2023-11-19T11:19:35;46.17;41.47;55.17;;
76382;Laerm;65202;52.520;10.528;2023-11-19T11:22:05;58.26;43.79;74.47;;
76382;Laerm;65202;52.520;10.528;2023-11-19T11:25:08;56.51;41.17;76.87;;
76382;Laerm;65202;52.520;10.528;2023-11-19T11:28:08;45.34;39.48;54.38;;
76382;Laerm;65202;52.520;10.528;2023-11-19T11:34:00;51.77;42.16;66.11;;
76382;Laerm;65202;52.520;10.528;2023-11-19T11:36:58;50.07;43.55;64.48;;
76382;Laerm;65202;52.520;10.528;2023-11-19T11:39:30;46.58;41.95;54.06;;
76382;Laerm;65202;52.520;10.528;2023-11-19T11:50:23;44.35;38.70;57.45;;
76382;Laerm;65202;52.520;10.528;2023-11-19T11:55:37;45.69;40.44;54.90;;
76382;Laerm;65202;52.520;10.528;2023-11-19T11:58:08;45.15;40.57;53.56;;
76382;Laerm;65202;52.520;10.528;2023-11-19T12:00:40;45.65;40.82;56.71;;
76382;Laerm;65202;52.520;10.528;2023-11-19T12:03:08;48.20;40.64;62.62;;
76382;Laerm;65202;52.520;10.528;2023-11-19T12:05:43;50.03;41.84;59.17;;
76382;Laerm;65202;52.520;10.528;2023-11-19T12:08:19;48.31;40.13;60.08;;
76382;Laerm;65202;52.520;10.528;2023-11-19T12:10:56;47.88;41.70;56.68;;
76382;Laerm;65202;52.520;10.528;2023-11-19T12:13:56;51.95;45.56;60.98;;
76382;Laerm;65202;52.520;10.528;2023-11-19T12:16:25;46.92;41.39;52.18;;
76382;Laerm;65202;52.520;10.528;2023-11-19T12:18:56;45.13;40.18;53.91;;
76382;Laerm;65202;52.520;10.528;2023-11-19T12:21:31;49.14;39.14;61.21;;
76382;Laerm;65202;52.520;10.528;2023-11-19T12:23:59;48.65;41.82;60.47;;
76382;Laerm;65202;52.520;10.528;2023-11-19T12:26:37;46.97;39.69;62.04;;
76382;Laerm;65202;52.520;10.528;2023-11-19T12:29:04;47.44;39.85;54.25;;
76382;Laerm;65202;52.520;10.528;2023-11-19T12:31:35;47.52;42.66;53.50;;
76382;Laerm;65202;52.520;10.528;2023-11-19T12:34:07;49.89;40.14;64.26;;
76382;Laerm;65202;52.520;10.528;2023-11-19T12:36:35;49.31;40.59;66.55;;
76382;Laerm;65202;52.520;10.528;2023-11-19T12:39:03;48.74;43.20;59.39;;
76382;Laerm;65202;52.520;10.528;2023-11-19T12:41:30;45.80;39.80;53.82;;
76382;Laerm;65202;52.520;10.528;2023-11-19T12:44:10;45.95;39.58;57.79;;
76382;Laerm;65202;52.520;10.528;2023-11-19T12:46:39;47.08;41.33;59.18;;
76382;Laerm;65202;52.520;10.528;2023-11-19T12:49:06;45.95;40.27;55.17;;
76382;Laerm;65202;52.520;10.528;2023-11-19T12:51:34;46.65;37.81;59.17;;
76382;Laerm;65202;52.520;10.528;2023-11-19T12:54:01;47.45;38.72;56.96;;
76382;Laerm;65202;52.520;10.528;2023-11-19T12:56:28;46.23;40.61;55.84;;
76382;Laerm;65202;52.520;10.528;2023-11-19T12:58:56;45.54;39.37;54.03;;
76382;Laerm;65202;52.520;10.528;2023-11-19T13:01:24;47.25;39.89;70.61;;
76382;Laerm;65202;52.520;10.528;2023-11-19T13:03:51;44.81;40.38;54.83;;
76382;Laerm;65202;52.520;10.528;2023-11-19T13:06:19;46.15;39.13;59.27;;
76382;Laerm;65202;52.520;10.528;2023-11-19T13:08:50;47.58;40.29;57.14;;
76382;Laerm;65202;52.520;10.528;2023-11-19T13:11:34;48.44;41.41;60.02;;
76382;Laerm;65202;52.520;10.528;2023-11-19T13:14:04;46.88;40.15;57.94;;
76382;Laerm;65202;52.520;10.528;2023-11-19T13:16:32;48.55;38.29;66.35;;
76382;Laerm;65202;52.520;10.528;2023-11-19T13:19:00;47.22;40.02;62.98;;
76382;Laerm;65202;52.520;10.528;2023-11-19T13:21:28;45.42;38.55;57.61;;
76382;Laerm;65202;52.520;10.528;2023-11-19T13:23:55;52.71;42.52;65.30;;
76382;Laerm;65202;52.520;10.528;2023-11-19T13:26:23;44.52;39.26;59.35;;
76382;Laerm;65202;52.520;10.528;2023-11-19T13:28:50;45.68;38.82;59.87;;
76382;Laerm;65202;52.520;10.528;2023-11-19T13:31:18;53.10;38.72;68.41;;
76382;Laerm;65202;52.520;10.528;2023-11-19T13:33:46;44.11;37.72;54.52;;
76382;Laerm;65202;52.520;10.528;2023-11-19T13:36:13;44.05;36.74;55.37;;
76382;Laerm;65202;52.520;10.528;2023-11-19T13:38:44;46.55;37.29;61.32;;
76382;Laerm;65202;52.520;10.528;2023-11-19T13:41:14;49.50;41.80;66.78;;
76382;Laerm;65202;52.520;10.528;2023-11-19T13:43:41;45.86;39.05;60.09;;
76382;Laerm;65202;52.520;10.528;2023-11-19T13:46:09;45.57;38.90;52.97;;
76382;Laerm;65202;52.520;10.528;2023-11-19T13:48:39;49.34;38.83;63.40;;
76382;Laerm;65202;52.520;10.528;2023-11-19T13:51:06;47.55;39.63;61.43;;
76382;Laerm;65202;52.520;10.528;2023-11-19T13:53:34;42.26;36.06;63.01;;
76382;Laerm;65202;52.520;10.528;2023-11-19T13:56:05;44.53;37.53;66.42;;